createdAt,value
2018-04-22T00:00:04.511Z,65.50
2018-04-22T00:02:30.774Z,65.50
2018-04-22T00:04:57.990Z,65.70
2018-04-22T00:07:24.571Z,66.20
2018-04-22T00:09:50.814Z,66.90
2018-04-22T00:12:17.420Z,66.60
2018-04-22T00:14:43.829Z,67.40
2018-04-22T00:17:10.362Z,66.80
2018-04-22T00:19:36.831Z,66.70
2018-04-22T00:22:02.957Z,66.90
2018-04-22T00:24:29.394Z,65.60
2018-04-22T00:26:56.096Z,64.50
2018-04-22T00:29:23.175Z,66.30
2018-04-22T00:31:50.114Z,67.20
2018-04-22T00:34:16.421Z,67.20
2018-04-22T00:36:43.324Z,67.60
2018-04-22T00:39:10.348Z,67.30
2018-04-22T00:41:36.420Z,67.10
2018-04-22T00:44:02.765Z,67.70
2018-04-22T00:46:29.604Z,69.00
2018-04-22T00:48:55.787Z,69.00
2018-04-22T00:51:22.696Z,68.70
2018-04-22T00:54:01.225Z,70.00
2018-04-22T00:56:27.294Z,70.10
2018-04-22T00:58:54.110Z,69.10
2018-04-22T01:01:20.218Z,69.10
2018-04-22T01:03:46.302Z,69.90
2018-04-22T01:06:12.430Z,71.10
2018-04-22T01:08:38.655Z,71.30
2018-04-22T01:11:04.879Z,70.70
2018-04-22T01:13:31.030Z,71.00
2018-04-22T01:15:57.111Z,70.70
2018-04-22T01:18:23.966Z,70.10
2018-04-22T01:20:50.810Z,70.10
2018-04-22T01:23:16.883Z,70.10
2018-04-22T01:25:43.890Z,71.20
2018-04-22T01:28:09.982Z,70.80
2018-04-22T01:30:36.094Z,71.90
2018-04-22T01:33:02.915Z,73.00
2018-04-22T01:35:29.020Z,73.00
2018-04-22T01:37:55.154Z,72.70
2018-04-22T01:40:21.245Z,73.50
2018-04-22T01:42:47.463Z,73.90
2018-04-22T01:45:13.572Z,74.30
2018-04-22T01:47:39.650Z,74.30
2018-04-22T01:50:05.778Z,74.80
2018-04-22T01:52:31.849Z,75.30
2018-04-22T01:54:58.711Z,76.00
2018-04-22T01:57:25.526Z,76.20
2018-04-22T01:59:51.611Z,76.10
2018-04-22T02:02:18.463Z,76.10
2018-04-22T02:04:45.300Z,76.70
2018-04-22T02:07:11.456Z,76.70
2018-04-22T02:09:38.299Z,77.90
2018-04-22T02:12:04.386Z,77.90
2018-04-22T02:14:30.486Z,78.10
2018-04-22T02:16:57.310Z,78.20
2018-04-22T02:19:23.541Z,78.20
2018-04-22T02:21:49.638Z,78.70
2018-04-22T02:24:15.760Z,78.20
2018-04-22T02:26:42.606Z,79.60
2018-04-22T02:29:09.424Z,80.20
2018-04-22T02:31:35.566Z,80.00
2018-04-22T02:34:01.656Z,79.50
2018-04-22T02:36:27.738Z,79.30
2018-04-22T02:38:53.964Z,79.70
2018-04-22T02:41:20.062Z,80.20
2018-04-22T02:43:46.179Z,79.80
2018-04-22T02:46:12.261Z,80.00
2018-04-22T02:48:38.340Z,80.30
2018-04-22T02:51:04.456Z,80.80
2018-04-22T02:53:30.563Z,80.70
2018-04-22T02:55:56.671Z,81.00
2018-04-22T02:58:23.515Z,81.50
2018-04-22T03:00:49.650Z,81.50
2018-04-22T03:03:15.761Z,81.70
2018-04-22T03:05:41.835Z,82.10
2018-04-22T03:08:08.074Z,82.40
2018-04-22T03:10:34.170Z,82.80
2018-04-22T03:13:00.282Z,82.10
2018-04-22T03:15:26.375Z,83.20
2018-04-22T03:17:52.470Z,83.60
2018-04-22T03:20:18.578Z,84.10
2018-04-22T03:22:45.416Z,84.70
2018-04-22T03:25:12.254Z,85.10
2018-04-22T03:27:38.378Z,85.00
2018-04-22T03:30:04.471Z,85.30
2018-04-22T03:32:30.644Z,85.60
2018-04-22T03:34:56.727Z,86.00
2018-04-22T03:37:23.571Z,86.50
2018-04-22T03:39:49.734Z,86.40
2018-04-22T03:42:16.572Z,86.90
2018-04-22T03:44:43.432Z,87.80
2018-04-22T03:47:10.264Z,87.10
2018-04-22T03:49:36.349Z,87.10
2018-04-22T03:52:02.475Z,87.50
2018-04-22T03:54:29.314Z,87.90
2018-04-22T03:56:55.402Z,87.90
2018-04-22T03:59:21.504Z,88.80
2018-04-22T04:01:48.336Z,88.70
2018-04-22T04:04:14.419Z,88.70
2018-04-22T04:06:40.521Z,88.90
2018-04-22T04:09:07.379Z,88.80
2018-04-22T04:11:34.222Z,89.20
2018-04-22T04:14:00.368Z,89.20
2018-04-22T04:16:26.456Z,89.30
2018-04-22T04:19:04.916Z,89.60
2018-04-22T04:21:43.557Z,89.20
2018-04-22T04:24:42.594Z,89.60
2018-04-22T04:27:20.922Z,88.90
2018-04-22T04:29:47.779Z,88.50
2018-04-22T04:32:13.863Z,89.30
2018-04-22T04:34:39.986Z,88.00
2018-04-22T04:37:06.119Z,87.90
2018-04-22T04:39:32.224Z,87.30
2018-04-22T04:41:59.087Z,87.00
2018-04-22T04:44:25.201Z,87.00
2018-04-22T04:46:52.036Z,84.50
2018-04-22T04:49:18.174Z,85.30
2018-04-22T04:51:44.286Z,83.70
2018-04-22T04:54:10.412Z,83.90
2018-04-22T04:56:36.523Z,82.40
2018-04-22T04:59:03.392Z,81.50
2018-04-22T05:01:29.540Z,81.50
2018-04-22T05:03:55.629Z,80.90
2018-04-22T05:06:21.810Z,80.50
2018-04-22T05:08:47.887Z,80.00
2018-04-22T05:11:14.398Z,78.30
2018-04-22T05:13:40.544Z,77.20
2018-04-22T05:16:06.696Z,76.20
2018-04-22T05:18:32.808Z,74.70
2018-04-22T05:20:58.919Z,74.70
2018-04-22T05:23:26.123Z,72.60
2018-04-22T05:25:52.261Z,71.70
2018-04-22T05:28:18.356Z,71.10
2018-04-22T05:30:45.214Z,69.70
2018-04-22T05:33:11.313Z,69.70
2018-04-22T05:35:37.381Z,68.90
2018-04-22T05:38:03.638Z,69.20
2018-04-22T05:40:30.455Z,65.90
2018-04-22T05:42:57.185Z,65.80
2018-04-22T05:45:23.288Z,66.00
2018-04-22T05:47:50.436Z,62.50
2018-04-22T05:50:16.558Z,62.50
2018-04-22T05:52:42.657Z,62.60
2018-04-22T05:55:08.834Z,61.80
2018-04-22T05:57:34.927Z,60.40
2018-04-22T06:00:01.035Z,59.80
2018-04-22T06:02:27.887Z,59.00
2018-04-22T06:04:54.734Z,57.90
2018-04-22T06:07:21.603Z,56.80
2018-04-22T06:09:48.503Z,56.40
2018-04-22T06:12:14.572Z,55.60
2018-04-22T06:14:40.690Z,55.80
2018-04-22T06:17:06.778Z,53.60
2018-04-22T06:19:34.608Z,49.80
2018-04-22T06:22:00.724Z,49.70
2018-04-22T06:24:26.798Z,48.80
2018-04-22T06:26:52.909Z,49.40
2018-04-22T06:29:18.991Z,47.40
2018-04-22T06:31:45.864Z,46.30
2018-04-22T06:34:11.983Z,46.30
2018-04-22T06:36:38.076Z,43.80
2018-04-22T06:39:04.240Z,42.10
2018-04-22T06:41:30.331Z,41.20
2018-04-22T06:43:56.444Z,39.90
2018-04-22T06:46:23.270Z,38.60
2018-04-22T06:48:49.398Z,38.40
2018-04-22T06:51:15.523Z,38.70
2018-04-22T06:53:41.611Z,37.60
2018-04-22T06:56:08.460Z,36.40
2018-04-22T06:58:35.360Z,35.90
2018-04-22T07:01:02.169Z,34.40
2018-04-22T07:03:29.117Z,34.60
2018-04-22T07:05:55.955Z,33.70
2018-04-22T07:08:22.092Z,34.00
2018-04-22T07:10:48.225Z,33.80
2018-04-22T07:13:14.312Z,33.20
2018-04-22T07:15:40.742Z,34.10
2018-04-22T07:18:07.557Z,33.10
2018-04-22T07:20:33.676Z,33.10
2018-04-22T07:22:59.779Z,33.10
2018-04-22T07:25:26.616Z,32.20
2018-04-22T07:27:53.078Z,32.20
2018-04-22T07:30:19.911Z,29.90
2018-04-22T07:32:46.138Z,29.90
2018-04-22T07:35:12.217Z,29.20
2018-04-22T07:37:39.040Z,28.00
2018-04-22T07:40:05.441Z,27.90
2018-04-22T07:42:31.606Z,27.80
2018-04-22T07:44:57.657Z,27.60
2018-04-22T07:47:23.795Z,28.50
2018-04-22T07:49:49.892Z,29.30
2018-04-22T07:52:15.963Z,28.20
2018-04-22T07:54:42.090Z,27.60
2018-04-22T07:57:08.192Z,27.20
2018-04-22T07:59:34.351Z,28.40
2018-04-22T08:02:00.637Z,27.90
2018-04-22T08:04:26.825Z,28.70
2018-04-22T08:06:52.955Z,28.10
2018-04-22T08:09:19.043Z,28.10
2018-04-22T08:11:45.295Z,27.00
2018-04-22T08:14:11.526Z,27.60
2018-04-22T08:16:37.612Z,28.20
2018-04-22T08:19:03.708Z,28.70
2018-04-22T08:21:29.866Z,28.80
2018-04-22T08:23:56.791Z,28.20
2018-04-22T08:26:22.885Z,28.20
2018-04-22T08:28:49.000Z,26.50
2018-04-22T08:31:15.837Z,25.10
2018-04-22T08:33:41.927Z,25.10
2018-04-22T08:36:08.059Z,25.60
2018-04-22T08:38:34.185Z,27.00
2018-04-22T08:41:00.338Z,26.10
2018-04-22T08:43:26.749Z,25.60
2018-04-22T08:45:53.661Z,24.80
2018-04-22T08:48:19.771Z,24.80
2018-04-22T08:50:45.916Z,24.70
2018-04-22T08:53:12.073Z,25.50
2018-04-22T08:55:38.182Z,25.10
2018-04-22T08:58:04.346Z,25.30
2018-04-22T09:00:30.446Z,25.10
2018-04-22T09:02:57.326Z,23.60
2018-04-22T09:05:23.474Z,23.60
2018-04-22T09:07:49.976Z,25.00
2018-04-22T09:10:16.810Z,24.00
2018-04-22T09:12:42.959Z,24.00
2018-04-22T09:15:09.057Z,24.60
2018-04-22T09:17:35.146Z,24.80
2018-04-22T09:20:02.036Z,25.20
2018-04-22T09:22:28.132Z,25.20
2018-04-22T09:24:54.369Z,24.20
2018-04-22T09:27:20.487Z,23.80
2018-04-22T09:29:46.627Z,23.80
2018-04-22T09:32:12.818Z,23.60
2018-04-22T09:34:38.922Z,22.90
2018-04-22T09:37:05.031Z,23.60
2018-04-22T09:39:31.639Z,23.60
2018-04-22T09:41:58.864Z,22.80
2018-04-22T09:44:24.967Z,22.50
2018-04-22T09:46:53.274Z,23.20
2018-04-22T09:49:19.384Z,22.80
2018-04-22T09:51:45.620Z,24.60
2018-04-22T09:54:11.760Z,23.30
2018-04-22T09:56:37.879Z,23.10
2018-04-22T09:59:03.976Z,22.90
2018-04-22T10:01:36.061Z,23.10
2018-04-22T10:04:02.192Z,23.30
2018-04-22T10:06:28.291Z,22.90
2018-04-22T10:08:54.441Z,21.70
2018-04-22T10:11:20.581Z,22.70
2018-04-22T10:13:47.023Z,23.00
2018-04-22T10:16:13.177Z,23.50
2018-04-22T10:18:39.265Z,24.80
2018-04-22T10:21:06.144Z,24.20
2018-04-22T10:23:33.096Z,24.30
2018-04-22T10:25:59.175Z,24.20
2018-04-22T10:28:25.330Z,24.80
2018-04-22T10:30:51.428Z,24.20
2018-04-22T10:33:17.547Z,23.70
2018-04-22T10:35:43.649Z,23.60
2018-04-22T10:38:10.488Z,24.50
2018-04-22T10:40:36.584Z,24.50
2018-04-22T10:43:02.711Z,24.40
2018-04-22T10:45:28.803Z,24.20
2018-04-22T10:47:54.922Z,24.20
2018-04-22T10:50:21.028Z,23.40
2018-04-22T10:52:47.142Z,22.60
2018-04-22T10:55:13.271Z,22.20
2018-04-22T10:57:39.382Z,23.00
2018-04-22T11:00:05.504Z,22.80
2018-04-22T11:02:31.586Z,22.40
2018-04-22T11:04:57.743Z,22.30
2018-04-22T11:07:23.867Z,22.00
2018-04-22T11:09:50.618Z,22.50
2018-04-22T11:12:16.743Z,22.20
2018-04-22T11:14:42.839Z,21.50
2018-04-22T11:17:09.995Z,21.60
2018-04-22T11:19:36.157Z,21.60
2018-04-22T11:22:02.302Z,21.50
2018-04-22T11:24:29.204Z,21.90
2018-04-22T11:26:55.308Z,21.90
2018-04-22T11:29:21.418Z,21.40
2018-04-22T11:31:48.658Z,20.70
2018-04-22T11:34:14.756Z,20.70
2018-04-22T11:36:40.850Z,22.50
2018-04-22T11:39:07.720Z,21.40
2018-04-22T11:41:34.568Z,22.60
2018-04-22T11:44:01.411Z,22.80
2018-04-22T11:46:28.304Z,24.00
2018-04-22T11:48:54.420Z,23.30
2018-04-22T11:51:20.547Z,23.20
2018-04-22T11:53:46.650Z,22.00
2018-04-22T11:56:12.796Z,21.00
2018-04-22T11:58:38.904Z,21.30
2018-04-22T12:01:05.019Z,21.40
2018-04-22T12:03:31.120Z,21.80
2018-04-22T12:05:57.203Z,21.70
2018-04-22T12:08:23.387Z,21.00
2018-04-22T12:10:49.520Z,21.40
2018-04-22T12:13:15.616Z,21.90
2018-04-22T12:15:41.750Z,21.20
2018-04-22T12:18:07.872Z,21.10
2018-04-22T12:20:34.729Z,21.10
2018-04-22T12:23:00.821Z,21.10
2018-04-22T12:25:27.923Z,20.90
2018-04-22T12:27:54.771Z,22.40
2018-04-22T12:30:20.976Z,22.40
2018-04-22T12:32:47.086Z,24.20
2018-04-22T12:35:13.198Z,22.50
2018-04-22T12:37:40.116Z,22.20
2018-04-22T12:40:06.216Z,22.20
2018-04-22T12:42:32.302Z,22.80
2018-04-22T12:44:58.440Z,22.80
2018-04-22T12:47:24.554Z,23.60
2018-04-22T12:49:50.629Z,23.10
2018-04-22T12:52:16.715Z,22.60
2018-04-22T12:54:42.810Z,22.90
2018-04-22T12:57:08.886Z,23.10
2018-04-22T12:59:35.023Z,23.30
2018-04-22T13:02:01.112Z,23.40
2018-04-22T13:04:27.202Z,23.40
2018-04-22T13:06:53.299Z,23.20
2018-04-22T13:09:20.147Z,23.90
2018-04-22T13:11:46.248Z,23.90
2018-04-22T13:14:12.373Z,22.70
2018-04-22T13:16:38.460Z,23.40
2018-04-22T13:19:05.270Z,24.10
2018-04-22T13:21:31.408Z,24.00
2018-04-22T13:23:57.518Z,23.00
2018-04-22T13:26:23.643Z,23.10
2018-04-22T13:28:50.734Z,24.00
2018-04-22T13:31:16.832Z,24.80
2018-04-22T13:33:43.659Z,24.20
2018-04-22T13:36:09.783Z,23.90
2018-04-22T13:38:35.885Z,23.80
2018-04-22T13:41:01.985Z,22.40
2018-04-22T13:43:28.112Z,22.30
2018-04-22T13:45:54.207Z,22.00
2018-04-22T13:48:20.296Z,21.70
2018-04-22T13:50:46.437Z,21.40
2018-04-22T13:53:12.596Z,21.20
2018-04-22T13:55:39.413Z,22.30
2018-04-22T13:58:05.539Z,22.30
2018-04-22T14:00:31.670Z,22.20
2018-04-22T14:02:57.769Z,22.50
2018-04-22T14:05:24.640Z,22.90
2018-04-22T14:07:50.717Z,22.20
2018-04-22T14:10:16.863Z,22.90
2018-04-22T14:12:43.855Z,22.60
2018-04-22T14:15:10.711Z,23.50
2018-04-22T14:17:37.700Z,24.40
2018-04-22T14:20:03.887Z,24.40
2018-04-22T14:22:29.980Z,23.70
2018-04-22T14:24:56.126Z,23.70
2018-04-22T14:27:22.295Z,24.00
2018-04-22T14:29:48.377Z,24.60
2018-04-22T14:32:14.467Z,23.60
2018-04-22T14:34:40.660Z,23.10
2018-04-22T14:37:06.756Z,22.90
2018-04-22T14:39:32.843Z,23.10
2018-04-22T14:41:59.066Z,23.90
2018-04-22T14:44:38.414Z,24.20
2018-04-22T14:47:04.656Z,24.20
2018-04-22T14:49:31.513Z,24.50
2018-04-22T14:51:58.341Z,25.40
2018-04-22T14:54:24.548Z,25.40
2018-04-22T14:56:50.697Z,25.60
2018-04-22T14:59:16.799Z,25.60
2018-04-22T15:01:42.919Z,26.30
2018-04-22T15:04:09.735Z,26.20
2018-04-22T15:06:35.815Z,26.10
2018-04-22T15:09:02.670Z,26.70
2018-04-22T15:11:29.538Z,27.70
2018-04-22T15:13:55.621Z,27.60
2018-04-22T15:16:21.830Z,27.40
2018-04-22T15:18:48.021Z,27.50
2018-04-22T15:21:14.181Z,28.10
2018-04-22T15:23:40.313Z,29.40
2018-04-22T15:26:07.136Z,28.30
2018-04-22T15:28:33.248Z,28.30
2018-04-22T15:31:00.088Z,29.50
2018-04-22T15:33:26.241Z,29.60
2018-04-22T15:35:52.368Z,30.20
2018-04-22T15:38:18.475Z,29.50
2018-04-22T15:40:44.667Z,30.20
2018-04-22T15:43:10.741Z,30.10
2018-04-22T15:45:36.974Z,30.40
2018-04-22T15:48:03.842Z,31.30
2018-04-22T15:50:30.664Z,31.40
2018-04-22T15:52:56.816Z,31.40
2018-04-22T15:55:22.927Z,32.00
2018-04-22T15:57:49.036Z,32.70
2018-04-22T16:00:15.261Z,32.80
2018-04-22T16:02:41.514Z,33.00
2018-04-22T16:05:07.596Z,33.00
2018-04-22T16:07:33.740Z,33.00
2018-04-22T16:09:59.819Z,33.10
2018-04-22T16:12:26.065Z,33.10
2018-04-22T16:14:52.212Z,33.00
2018-04-22T16:17:18.335Z,33.10
2018-04-22T16:19:45.221Z,32.20
2018-04-22T16:22:11.389Z,32.20
2018-04-22T16:24:37.505Z,32.00
2018-04-22T16:27:03.630Z,32.10
2018-04-22T16:29:29.748Z,32.40
2018-04-22T16:31:55.874Z,32.60
2018-04-22T16:34:22.788Z,32.90
2018-04-22T16:36:48.965Z,32.80
2018-04-22T16:39:15.846Z,33.70
2018-04-22T16:41:42.022Z,33.60
2018-04-22T16:44:08.172Z,34.10
2018-04-22T16:46:34.323Z,34.10
2018-04-22T16:49:00.414Z,34.20
2018-04-22T16:51:26.559Z,34.30
2018-04-22T16:53:52.661Z,34.30
2018-04-22T16:56:19.555Z,34.80
2018-04-22T16:58:45.702Z,34.80
2018-04-22T17:01:11.819Z,34.50
2018-04-22T17:03:37.966Z,34.50
2018-04-22T17:06:04.126Z,34.90
2018-04-22T17:08:30.252Z,35.20
2018-04-22T17:10:56.364Z,35.50
2018-04-22T17:13:22.498Z,35.80
2018-04-22T17:15:48.661Z,36.00
2018-04-22T17:18:14.788Z,36.10
2018-04-22T17:20:47.774Z,36.30
2018-04-22T17:23:14.734Z,36.40
2018-04-22T17:25:41.077Z,36.40
2018-04-22T17:28:07.210Z,36.60
2018-04-22T17:30:33.341Z,36.50
2018-04-22T17:33:00.195Z,36.50
2018-04-22T17:35:27.059Z,36.60
2018-04-22T17:37:53.999Z,37.30
2018-04-22T17:40:20.912Z,36.50
2018-04-22T17:42:47.169Z,36.90
2018-04-22T17:45:13.327Z,37.30
2018-04-22T17:47:39.467Z,37.50
2018-04-22T17:50:05.574Z,37.70
2018-04-22T17:52:31.728Z,37.90
2018-04-22T17:54:57.875Z,38.20
2018-04-22T17:57:24.025Z,38.50
2018-04-22T17:59:50.124Z,38.70
2018-04-22T18:02:16.338Z,38.90
2018-04-22T18:04:42.416Z,39.80
2018-04-22T18:07:08.685Z,39.30
2018-04-22T18:09:34.864Z,39.70
2018-04-22T18:12:00.963Z,39.90
2018-04-22T18:14:27.871Z,40.50
2018-04-22T18:16:54.003Z,40.40
2018-04-22T18:19:20.152Z,40.40
2018-04-22T18:21:46.243Z,40.60
2018-04-22T18:24:13.123Z,41.00
2018-04-22T18:26:39.276Z,40.90
2018-04-22T18:29:05.378Z,41.20
2018-04-22T18:31:32.718Z,41.50
2018-04-22T18:33:58.827Z,41.50
2018-04-22T18:36:24.954Z,41.80
2018-04-22T18:38:51.028Z,42.20
2018-04-22T18:41:17.341Z,42.30
2018-04-22T18:43:43.471Z,42.50
2018-04-22T18:46:09.656Z,42.70
2018-04-22T18:48:35.812Z,43.00
2018-04-22T18:51:01.948Z,42.70
2018-04-22T18:53:28.762Z,43.80
2018-04-22T18:55:54.996Z,43.80
2018-04-22T18:58:21.187Z,43.80
2018-04-22T19:00:48.010Z,44.60
2018-04-22T19:03:14.856Z,44.80
2018-04-22T19:05:40.984Z,44.80
2018-04-22T19:08:07.089Z,45.00
2018-04-22T19:10:33.163Z,45.90
2018-04-22T19:12:59.370Z,45.40
2018-04-22T19:15:25.499Z,45.80
2018-04-22T19:17:51.588Z,46.00
2018-04-22T19:20:17.694Z,46.30
2018-04-22T19:22:43.819Z,46.60
2018-04-22T19:25:09.972Z,46.80
2018-04-22T19:27:36.205Z,47.30
2018-04-22T19:30:02.458Z,47.70
2018-04-22T19:32:28.551Z,48.10
2018-04-22T19:34:55.496Z,49.10
2018-04-22T19:37:21.586Z,48.90
2018-04-22T19:39:47.753Z,49.30
2018-04-22T19:42:13.910Z,49.60
2018-04-22T19:44:40.014Z,49.80
2018-04-22T19:47:06.179Z,50.30
2018-04-22T19:49:32.396Z,50.50
2018-04-22T19:51:58.512Z,50.80
2018-04-22T19:54:24.670Z,51.00
2018-04-22T19:56:50.846Z,51.10
2018-04-22T19:59:17.041Z,51.20
2018-04-22T20:01:43.169Z,51.50
2018-04-22T20:04:09.275Z,51.70
2018-04-22T20:48:29.399Z,52.00
2018-04-22T20:50:55.513Z,54.40
2018-04-22T20:53:22.383Z,54.10
2018-04-22T20:55:48.515Z,54.10
2018-04-22T20:58:14.633Z,54.30
2018-04-22T21:00:40.786Z,54.30
2018-04-22T21:03:07.177Z,54.40
2018-04-22T21:05:33.342Z,54.60
2018-04-22T21:07:59.427Z,54.90
2018-04-22T21:10:25.679Z,54.90
2018-04-22T21:12:51.814Z,55.00
2018-04-22T21:15:17.953Z,54.90
2018-04-22T21:17:44.055Z,55.20
2018-04-22T21:20:10.920Z,55.60
2018-04-22T21:22:37.048Z,55.60
2018-04-22T21:25:03.891Z,53.60
2018-04-22T21:27:29.986Z,53.60
2018-04-22T21:29:56.124Z,52.60
2018-04-22T21:32:22.286Z,51.30
2018-04-22T21:34:48.462Z,49.50
2018-04-22T21:37:15.282Z,47.90
2018-04-22T21:39:41.372Z,47.90
2018-04-22T21:42:07.498Z,48.50
2018-04-22T21:44:33.609Z,49.50
2018-04-22T21:46:59.710Z,50.00
2018-04-22T21:49:25.837Z,50.30
2018-04-22T21:51:51.951Z,50.80
2018-04-22T21:54:18.778Z,51.40
2018-04-22T21:56:44.935Z,51.40
2018-04-22T21:59:11.789Z,51.80
2018-04-22T22:01:38.615Z,52.00
2018-04-22T22:04:04.723Z,51.90
2018-04-22T22:06:30.805Z,52.20
2018-04-22T22:08:56.879Z,51.90
2018-04-22T22:11:23.015Z,52.00
2018-04-22T22:13:49.834Z,52.40
2018-04-22T22:16:16.081Z,52.50
2018-04-22T22:18:42.207Z,52.50
2018-04-22T22:21:08.296Z,52.80
2018-04-22T22:23:34.380Z,53.30
2018-04-22T22:26:00.491Z,53.20
2018-04-22T22:28:26.579Z,53.40
2018-04-22T22:30:53.484Z,53.60
2018-04-22T22:33:19.542Z,53.60
2018-04-22T22:35:45.637Z,54.00
2018-04-22T22:38:11.730Z,54.40
2018-04-22T22:40:38.061Z,54.60
2018-04-22T22:43:04.666Z,55.60
2018-04-22T22:45:31.128Z,56.10
2018-04-22T22:47:57.563Z,57.70
2018-04-22T22:50:24.735Z,58.70
2018-04-22T22:52:50.943Z,59.40
2018-04-22T22:55:17.052Z,59.70
2018-04-22T22:57:43.267Z,60.10
2018-04-22T23:00:09.355Z,60.30
2018-04-22T23:02:35.518Z,60.80
2018-04-22T23:05:01.669Z,61.20
2018-04-22T23:07:27.755Z,61.40
2018-04-22T23:09:54.846Z,62.60
2018-04-22T23:12:20.989Z,62.60
2018-04-22T23:14:47.125Z,63.30
2018-04-22T23:17:13.416Z,67.20
2018-04-22T23:19:39.581Z,68.50
2018-04-22T23:22:05.736Z,72.90
2018-04-22T23:24:31.824Z,72.20
2018-04-22T23:26:58.663Z,75.40
2018-04-22T23:29:24.796Z,75.00
2018-04-22T23:31:50.967Z,74.50
2018-04-22T23:34:17.114Z,74.20
2018-04-22T23:36:43.934Z,71.20
2018-04-22T23:39:10.102Z,71.40
2018-04-22T23:41:36.942Z,70.60
2018-04-22T23:44:03.063Z,70.60
2018-04-22T23:46:29.170Z,70.00
2018-04-22T23:48:55.275Z,70.50
2018-04-22T23:51:22.152Z,70.90
2018-04-22T23:53:48.246Z,70.80
2018-04-22T23:56:14.352Z,71.70
2018-04-22T23:58:40.556Z,72.60
